sensor_id;sensor_type;location;lat;lon;timestamp;pressure;altitude;pressure_sealevel;temperature;humidity
73633;BME280;61927;50.080;14.418;2024-03-23T00:53:47;98697.41;;;12.08;70.16
73633;BME280;61927;50.080;14.418;2024-03-23T00:56:12;98695.59;;;12.09;70.47
73633;BME280;61927;50.080;14.418;2024-03-23T00:58:38;98692.34;;;12.05;70.01
73633;BME280;61927;50.080;14.418;2024-03-23T01:01:04;98674.34;;;11.98;69.96
73633;BME280;61927;50.080;14.418;2024-03-23T01:03:30;98674.72;;;11.93;70.25
73633;BME280;61927;50.080;14.418;2024-03-23T01:06:02;98671.34;;;11.91;69.60
73633;BME280;61927;50.080;14.418;2024-03-23T01:08:28;98669.53;;;11.91;69.61
73633;BME280;61927;50.080;14.418;2024-03-23T01:10:58;98666.75;;;11.93;69.82
73633;BME280;61927;50.080;14.418;2024-03-23T01:13:25;98656.09;;;11.93;69.71
73633;BME280;61927;50.080;14.418;2024-03-23T01:15:51;98649.81;;;11.94;69.89
73633;BME280;61927;50.080;14.418;2024-03-23T01:18:19;98658.75;;;11.93;69.32
73633;BME280;61927;50.080;14.418;2024-03-23T01:20:45;98648.97;;;11.93;69.11
73633;BME280;61927;50.080;14.418;2024-03-23T01:23:11;98650.78;;;11.93;69.10
73633;BME280;61927;50.080;14.418;2024-03-23T01:25:36;98647.88;;;11.96;68.70
73633;BME280;61927;50.080;14.418;2024-03-23T01:28:02;98638.81;;;11.99;68.32
73633;BME280;61927;50.080;14.418;2024-03-23T01:30:28;98638.09;;;11.96;68.18
73633;BME280;61927;50.080;14.418;2024-03-23T01:32:54;98629.03;;;11.88;68.62
73633;BME280;61927;50.080;14.418;2024-03-23T01:35:19;98630.97;;;11.86;68.61
73633;BME280;61927;50.080;14.418;2024-03-23T01:37:45;98627.25;;;11.77;69.09
73633;BME280;61927;50.080;14.418;2024-03-23T01:40:11;98629.78;;;11.79;68.87
73633;BME280;61927;50.080;14.418;2024-03-23T01:42:41;98618.75;;;11.72;68.54
73633;BME280;61927;50.080;14.418;2024-03-23T01:45:09;98622.88;;;11.65;68.62
73633;BME280;61927;50.080;14.418;2024-03-23T01:47:37;98619.38;;;11.64;68.73
73633;BME280;61927;50.080;14.418;2024-03-23T01:50:04;98618.16;;;11.57;69.15
73633;BME280;61927;50.080;14.418;2024-03-23T01:52:30;98612.72;;;11.59;69.10
73633;BME280;61927;50.080;14.418;2024-03-23T01:54:55;98609.72;;;11.52;69.45
73633;BME280;61927;50.080;14.418;2024-03-23T01:57:21;98596.91;;;11.46;69.49
73633;BME280;61927;50.080;14.418;2024-03-23T01:59:47;98601.84;;;11.40;69.84
73633;BME280;61927;50.080;14.418;2024-03-23T02:02:13;98602.72;;;11.40;70.08
73633;BME280;61927;50.080;14.418;2024-03-23T02:04:39;98592.69;;;11.44;69.91
73633;BME280;61927;50.080;14.418;2024-03-23T02:07:07;98593.53;;;11.44;69.66
73633;BME280;61927;50.080;14.418;2024-03-23T02:09:33;98592.81;;;11.42;69.36
73633;BME280;61927;50.080;14.418;2024-03-23T02:12:01;98588.59;;;11.40;69.39
73633;BME280;61927;50.080;14.418;2024-03-23T02:14:27;98588.47;;;11.41;69.82
73633;BME280;61927;50.080;14.418;2024-03-23T02:16:53;98586.03;;;11.38;69.41
73633;BME280;61927;50.080;14.418;2024-03-23T02:19:18;98577.34;;;11.36;69.35
73633;BME280;61927;50.080;14.418;2024-03-23T02:21:44;98577.22;;;11.38;69.43
73633;BME280;61927;50.080;14.418;2024-03-23T02:24:09;98568.66;;;11.34;69.47
73633;BME280;61927;50.080;14.418;2024-03-23T02:26:35;98572.66;;;11.28;69.87
73633;BME280;61927;50.080;14.418;2024-03-23T02:29:01;98561.78;;;11.20;70.34
73633;BME280;61927;50.080;14.418;2024-03-23T02:31:27;98560.22;;;11.18;69.99
73633;BME280;61927;50.080;14.418;2024-03-23T02:33:52;98553.22;;;11.17;69.91
73633;BME280;61927;50.080;14.418;2024-03-23T02:36:18;98552.25;;;11.18;69.91
73633;BME280;61927;50.080;14.418;2024-03-23T02:38:44;98547.91;;;11.17;69.81
73633;BME280;61927;50.080;14.418;2024-03-23T02:41:10;98545.38;;;11.15;69.96
73633;BME280;61927;50.080;14.418;2024-03-23T02:43:36;98536.44;;;11.16;69.80
73633;BME280;61927;50.080;14.418;2024-03-23T02:46:01;98536.44;;;11.16;69.79
73633;BME280;61927;50.080;14.418;2024-03-23T02:48:28;98533.19;;;11.13;69.93
73633;BME280;61927;50.080;14.418;2024-03-23T02:50:53;98527.97;;;11.11;69.77
73633;BME280;61927;50.080;14.418;2024-03-23T02:53:19;98530.28;;;11.16;70.21
73633;BME280;61927;50.080;14.418;2024-03-23T02:55:45;98530.53;;;11.13;70.15
73633;BME280;61927;50.080;14.418;2024-03-23T02:58:11;98529.56;;;11.14;70.54
73633;BME280;61927;50.080;14.418;2024-03-23T03:00:36;98527.63;;;11.05;70.73
73633;BME280;61927;50.080;14.418;2024-03-23T03:03:02;98524.97;;;11.05;71.00
73633;BME280;61927;50.080;14.418;2024-03-23T03:05:29;98521.22;;;10.96;71.32
73633;BME280;61927;50.080;14.418;2024-03-23T03:07:54;98516.63;;;10.87;71.47
73633;BME280;61927;50.080;14.418;2024-03-23T03:10:20;98508.56;;;10.88;71.59
73633;BME280;61927;50.080;14.418;2024-03-23T03:12:46;98504.06;;;10.78;71.91
73633;BME280;61927;50.080;14.418;2024-03-23T03:15:11;98495.50;;;10.74;71.97
73633;BME280;61927;50.080;14.418;2024-03-23T03:17:37;98495.63;;;10.73;72.10
73633;BME280;61927;50.080;14.418;2024-03-23T03:20:03;98501.19;;;10.70;72.54
73633;BME280;61927;50.080;14.418;2024-03-23T03:22:30;98495.25;;;10.66;72.21
73633;BME280;61927;50.080;14.418;2024-03-23T03:24:55;98493.69;;;10.63;72.80
73633;BME280;61927;50.080;14.418;2024-03-23T03:27:21;98491.88;;;10.64;72.45
73633;BME280;61927;50.080;14.418;2024-03-23T03:29:48;98487.28;;;10.55;72.70
73633;BME280;61927;50.080;14.418;2024-03-23T03:32:13;98477.88;;;10.51;73.13
73633;BME280;61927;50.080;14.418;2024-03-23T03:34:39;98470.16;;;10.48;73.31
73633;BME280;61927;50.080;14.418;2024-03-23T03:37:05;98470.38;;;10.45;73.61
73633;BME280;61927;50.080;14.418;2024-03-23T03:39:30;98467.00;;;10.43;72.98
73633;BME280;61927;50.080;14.418;2024-03-23T03:41:56;98457.59;;;10.39;73.11
73633;BME280;61927;50.080;14.418;2024-03-23T03:44:22;98462.41;;;10.33;73.39
73633;BME280;61927;50.080;14.418;2024-03-23T03:46:47;98451.81;;;10.33;72.91
73633;BME280;61927;50.080;14.418;2024-03-23T03:49:13;98455.53;;;10.31;73.38
73633;BME280;61927;50.080;14.418;2024-03-23T03:51:38;98454.81;;;10.29;73.26
73633;BME280;61927;50.080;14.418;2024-03-23T03:54:04;98453.97;;;10.28;73.17
73633;BME280;61927;50.080;14.418;2024-03-23T03:56:30;98441.44;;;10.30;72.88
73633;BME280;61927;50.080;14.418;2024-03-23T03:58:56;98446.50;;;10.33;72.94
73633;BME280;61927;50.080;14.418;2024-03-23T04:01:21;98441.19;;;10.33;73.05
73633;BME280;61927;50.080;14.418;2024-03-23T04:03:47;98449.63;;;10.27;73.00
73633;BME280;61927;50.080;14.418;2024-03-23T04:06:18;98445.88;;;10.30;73.18
73633;BME280;61927;50.080;14.418;2024-03-23T04:08:44;98454.94;;;10.27;72.59
73633;BME280;61927;50.080;14.418;2024-03-23T04:11:09;98445.16;;;10.28;73.08
73633;BME280;61927;50.080;14.418;2024-03-23T04:13:35;98448.44;;;10.31;72.76
73633;BME280;61927;50.080;14.418;2024-03-23T04:16:01;98447.84;;;10.39;72.86
73633;BME280;61927;50.080;14.418;2024-03-23T04:18:27;98438.44;;;10.35;72.07
73633;BME280;61927;50.080;14.418;2024-03-23T04:20:52;98428.31;;;10.40;71.75
73633;BME280;61927;50.080;14.418;2024-03-23T04:23:18;98421.19;;;10.41;72.07
73633;BME280;61927;50.080;14.418;2024-03-23T04:25:44;98415.78;;;10.42;71.69
73633;BME280;61927;50.080;14.418;2024-03-23T04:28:09;98408.53;;;10.33;72.21
73633;BME280;61927;50.080;14.418;2024-03-23T04:30:35;98409.50;;;10.32;71.89
73633;BME280;61927;50.080;14.418;2024-03-23T04:33:01;98419.50;;;10.28;72.32
73633;BME280;61927;50.080;14.418;2024-03-23T04:35:26;98422.38;;;10.25;72.34
73633;BME280;61927;50.080;14.418;2024-03-23T04:37:53;98426.97;;;10.23;72.40
73633;BME280;61927;50.080;14.418;2024-03-23T04:40:19;98413.59;;;10.25;72.31
73633;BME280;61927;50.080;14.418;2024-03-23T04:42:45;98405.03;;;10.21;72.06
73633;BME280;61927;50.080;14.418;2024-03-23T04:45:10;98411.00;;;10.12;73.16
73633;BME280;61927;50.080;14.418;2024-03-23T04:47:37;98411.97;;;10.11;72.73
73633;BME280;61927;50.080;14.418;2024-03-23T04:50:04;98408.81;;;10.06;72.98
73633;BME280;61927;50.080;14.418;2024-03-23T04:52:30;98403.63;;;10.04;72.66
73633;BME280;61927;50.080;14.418;2024-03-23T04:54:56;98394.59;;;10.07;72.74
73633;BME280;61927;50.080;14.418;2024-03-23T04:57:22;98400.59;;;9.98;72.88
73633;BME280;61927;50.080;14.418;2024-03-23T04:59:48;98398.31;;;9.93;72.98
73633;BME280;61927;50.080;14.418;2024-03-23T05:02:14;98393.38;;;10.00;73.05
73633;BME280;61927;50.080;14.418;2024-03-23T05:04:40;98391.66;;;9.88;73.11
73633;BME280;61927;50.080;14.418;2024-03-23T05:07:08;98388.16;;;9.87;73.38
73633;BME280;61927;50.080;14.418;2024-03-23T05:09:33;98383.59;;;9.89;73.18
73633;BME280;61927;50.080;14.418;2024-03-23T05:12:00;98368.53;;;9.90;73.50
73633;BME280;61927;50.080;14.418;2024-03-23T05:14:26;98379.63;;;9.95;72.76
73633;BME280;61927;50.080;14.418;2024-03-23T05:16:52;98362.66;;;9.97;73.26
73633;BME280;61927;50.080;14.418;2024-03-23T05:19:18;98360.00;;;9.97;73.15
73633;BME280;61927;50.080;14.418;2024-03-23T05:21:44;98360.97;;;9.96;72.49
73633;BME280;61927;50.080;14.418;2024-03-23T05:24:09;98359.66;;;10.02;72.56
73633;BME280;61927;50.080;14.418;2024-03-23T05:26:35;98359.53;;;10.03;72.40
73633;BME280;61927;50.080;14.418;2024-03-23T05:29:02;98352.53;;;10.02;72.74
73633;BME280;61927;50.080;14.418;2024-03-23T05:31:30;98353.75;;;10.10;72.85
73633;BME280;61927;50.080;14.418;2024-03-23T05:33:55;98351.38;;;10.18;71.73
73633;BME280;61927;50.080;14.418;2024-03-23T05:36:21;98346.47;;;10.24;71.87
73633;BME280;61927;50.080;14.418;2024-03-23T05:38:47;98344.66;;;10.25;71.41
73633;BME280;61927;50.080;14.418;2024-03-23T05:41:13;98327.41;;;10.30;71.20
73633;BME280;61927;50.080;14.418;2024-03-23T05:43:39;98329.59;;;10.25;71.14
73633;BME280;61927;50.080;14.418;2024-03-23T05:46:08;98325.84;;;10.28;70.67
73633;BME280;61927;50.080;14.418;2024-03-23T05:48:34;98322.25;;;10.29;70.88
73633;BME280;61927;50.080;14.418;2024-03-23T05:51:00;98316.34;;;10.25;70.80
73633;BME280;61927;50.080;14.418;2024-03-23T05:53:26;98315.13;;;10.29;70.88
73633;BME280;61927;50.080;14.418;2024-03-23T05:56:00;98313.31;;;10.30;70.86
73633;BME280;61927;50.080;14.418;2024-03-23T05:58:27;98315.25;;;10.28;70.61
73633;BME280;61927;50.080;14.418;2024-03-23T06:00:57;98312.22;;;10.32;70.81
73633;BME280;61927;50.080;14.418;2024-03-23T06:03:24;98303.31;;;10.33;70.53
73633;BME280;61927;50.080;14.418;2024-03-23T06:05:50;98298.25;;;10.30;71.04
73633;BME280;61927;50.080;14.418;2024-03-23T06:08:16;98297.03;;;10.34;70.79
73633;BME280;61927;50.080;14.418;2024-03-23T06:10:42;98289.56;;;10.40;70.34
73633;BME280;61927;50.080;14.418;2024-03-23T06:13:07;98289.44;;;10.41;70.70
73633;BME280;61927;50.080;14.418;2024-03-23T06:15:33;98287.41;;;10.45;70.18
73633;BME280;61927;50.080;14.418;2024-03-23T06:18:03;98274.50;;;10.51;70.44
73633;BME280;61927;50.080;14.418;2024-03-23T06:20:30;98261.94;;;10.53;70.23
73633;BME280;61927;50.080;14.418;2024-03-23T06:22:55;98281.22;;;10.55;70.29
73633;BME280;61927;50.080;14.418;2024-03-23T06:25:21;98279.44;;;10.56;70.47
73633;BME280;61927;50.080;14.418;2024-03-23T06:27:47;98267.94;;;10.66;69.44
73633;BME280;61927;50.080;14.418;2024-03-23T06:30:13;98263.22;;;10.70;69.57
73633;BME280;61927;50.080;14.418;2024-03-23T06:32:38;98251.91;;;10.68;69.69
73633;BME280;61927;50.080;14.418;2024-03-23T06:35:04;98247.41;;;10.80;69.19
73633;BME280;61927;50.080;14.418;2024-03-23T06:37:36;98248.13;;;10.82;69.21
73633;BME280;61927;50.080;14.418;2024-03-23T06:40:02;98245.81;;;10.88;69.48
73633;BME280;61927;50.080;14.418;2024-03-23T06:42:30;98235.41;;;10.96;69.27
73633;BME280;61927;50.080;14.418;2024-03-23T06:44:55;98229.97;;;10.98;69.38
73633;BME280;61927;50.080;14.418;2024-03-23T06:47:21;98225.97;;;11.04;69.34
73633;BME280;61927;50.080;14.418;2024-03-23T06:49:47;98226.34;;;10.99;69.36
73633;BME280;61927;50.080;14.418;2024-03-23T06:52:12;98223.34;;;10.92;70.24
73633;BME280;61927;50.080;14.418;2024-03-23T06:54:38;98211.56;;;10.85;70.42
73633;BME280;61927;50.080;14.418;2024-03-23T06:57:04;98213.72;;;10.91;70.05
73633;BME280;61927;50.080;14.418;2024-03-23T06:59:31;98204.53;;;10.95;70.06
73633;BME280;61927;50.080;14.418;2024-03-23T07:01:56;98194.63;;;10.97;69.83
73633;BME280;61927;50.080;14.418;2024-03-23T07:04:22;98191.00;;;10.98;69.71
73633;BME280;61927;50.080;14.418;2024-03-23T07:06:48;98191.47;;;11.04;69.40
73633;BME280;61927;50.080;14.418;2024-03-23T07:09:13;98194.19;;;11.13;69.07
73633;BME280;61927;50.080;14.418;2024-03-23T07:11:39;98195.16;;;11.12;69.02
73633;BME280;61927;50.080;14.418;2024-03-23T07:14:04;98175.72;;;11.12;69.49
73633;BME280;61927;50.080;14.418;2024-03-23T07:16:30;98175.84;;;11.10;69.70
73633;BME280;61927;50.080;14.418;2024-03-23T07:18:56;98168.88;;;11.09;70.18
73633;BME280;61927;50.080;14.418;2024-03-23T07:21:21;98160.78;;;11.11;70.30
73633;BME280;61927;50.080;14.418;2024-03-23T07:23:47;98151.97;;;11.10;70.56
73633;BME280;61927;50.080;14.418;2024-03-23T07:26:13;98133.25;;;11.12;70.01
73633;BME280;61927;50.080;14.418;2024-03-23T07:28:40;98146.25;;;11.15;70.05
73633;BME280;61927;50.080;14.418;2024-03-23T07:31:13;98144.31;;;11.17;70.08
73633;BME280;61927;50.080;14.418;2024-03-23T07:33:44;98146.47;;;11.23;70.03
73633;BME280;61927;50.080;14.418;2024-03-23T07:36:10;98142.56;;;11.27;70.07
73633;BME280;61927;50.080;14.418;2024-03-23T07:38:36;98142.16;;;11.31;70.21
73633;BME280;61927;50.080;14.418;2024-03-23T07:41:14;98133.81;;;11.36;69.74
73633;BME280;61927;50.080;14.418;2024-03-23T07:43:42;98125.75;;;11.47;69.21
73633;BME280;61927;50.080;14.418;2024-03-23T07:46:08;98128.72;;;11.54;68.82
73633;BME280;61927;50.080;14.418;2024-03-23T07:48:34;98128.31;;;11.58;68.42
73633;BME280;61927;50.080;14.418;2024-03-23T07:51:20;98114.63;;;11.63;68.41
73633;BME280;61927;50.080;14.418;2024-03-23T07:53:46;98102.63;;;11.69;68.19
73633;BME280;61927;50.080;14.418;2024-03-23T07:56:14;98101.13;;;11.76;67.78
73633;BME280;61927;50.080;14.418;2024-03-23T07:58:44;98092.63;;;11.82;67.60
73633;BME280;61927;50.080;14.418;2024-03-23T08:01:17;98088.03;;;11.84;67.39
73633;BME280;61927;50.080;14.418;2024-03-23T08:03:44;98086.94;;;11.96;66.90
73633;BME280;61927;50.080;14.418;2024-03-23T08:06:17;98093.09;;;11.96;66.74
73633;BME280;61927;50.080;14.418;2024-03-23T08:08:46;98085.69;;;12.00;66.88
73633;BME280;61927;50.080;14.418;2024-03-23T08:11:13;98085.84;;;12.08;66.53
73633;BME280;61927;50.080;14.418;2024-03-23T08:13:40;98083.91;;;12.20;66.06
73633;BME280;61927;50.080;14.418;2024-03-23T08:16:06;98079.16;;;12.23;66.02
73633;BME280;61927;50.080;14.418;2024-03-23T08:18:32;98068.50;;;12.33;65.88
73633;BME280;61927;50.080;14.418;2024-03-23T08:21:05;98067.81;;;12.50;64.79
73633;BME280;61927;50.080;14.418;2024-03-23T08:23:33;98063.47;;;12.49;65.22
73633;BME280;61927;50.080;14.418;2024-03-23T08:26:00;98061.50;;;12.61;64.48
73633;BME280;61927;50.080;14.418;2024-03-23T08:28:27;98054.50;;;12.70;64.41
73633;BME280;61927;50.080;14.418;2024-03-23T08:31:01;98053.47;;;12.90;63.91
73633;BME280;61927;50.080;14.418;2024-03-23T08:33:28;98054.56;;;13.07;63.25
73633;BME280;61927;50.080;14.418;2024-03-23T08:36:01;98051.56;;;13.29;62.87
73633;BME280;61927;50.080;14.418;2024-03-23T08:38:28;98042.63;;;13.57;61.78
73633;BME280;61927;50.080;14.418;2024-03-23T08:41:10;98049.63;;;13.86;59.61
73633;BME280;61927;50.080;14.418;2024-03-23T08:43:41;98037.38;;;14.29;57.26
73633;BME280;61927;50.080;14.418;2024-03-23T08:46:11;98033.44;;;14.50;56.34
73633;BME280;61927;50.080;14.418;2024-03-23T08:48:39;98035.47;;;14.74;55.63
73633;BME280;61927;50.080;14.418;2024-03-23T08:51:09;98031.59;;;14.95;54.53
73633;BME280;61927;50.080;14.418;2024-03-23T08:53:35;98023.91;;;15.17;53.95
73633;BME280;61927;50.080;14.418;2024-03-23T08:56:02;98032.28;;;15.23;53.88
73633;BME280;61927;50.080;14.418;2024-03-23T08:58:30;98018.97;;;15.31;53.04
73633;BME280;61927;50.080;14.418;2024-03-23T09:01:11;98027.28;;;15.28;53.26
73633;BME280;61927;50.080;14.418;2024-03-23T09:03:41;98034.94;;;15.23;53.48
73633;BME280;61927;50.080;14.418;2024-03-23T09:06:12;98042.13;;;15.22;52.07
73633;BME280;61927;50.080;14.418;2024-03-23T09:08:38;98069.97;;;15.11;51.61
73633;BME280;61927;50.080;14.418;2024-03-23T09:11:06;98057.63;;;14.93;51.27
73633;BME280;61927;50.080;14.418;2024-03-23T09:13:37;98062.84;;;14.76;52.13
73633;BME280;61927;50.080;14.418;2024-03-23T09:16:04;98063.31;;;14.72;52.45
73633;BME280;61927;50.080;14.418;2024-03-23T09:18:32;98060.75;;;14.62;53.09
73633;BME280;61927;50.080;14.418;2024-03-23T09:20:58;98086.69;;;14.52;53.69
73633;BME280;61927;50.080;14.418;2024-03-23T09:23:24;98090.69;;;14.38;54.36
73633;BME280;61927;50.080;14.418;2024-03-23T09:25:50;98097.91;;;14.28;54.90
73633;BME280;61927;50.080;14.418;2024-03-23T09:28:16;98095.63;;;14.15;55.59
73633;BME280;61927;50.080;14.418;2024-03-23T09:30:41;98120.91;;;14.11;57.62
73633;BME280;61927;50.080;14.418;2024-03-23T09:33:11;98124.63;;;13.73;62.34
73633;BME280;61927;50.080;14.418;2024-03-23T09:35:38;98090.34;;;13.51;64.60
73633;BME280;61927;50.080;14.418;2024-03-23T09:38:04;98103.13;;;13.47;64.77
73633;BME280;61927;50.080;14.418;2024-03-23T09:40:29;98099.75;;;13.45;65.14
73633;BME280;61927;50.080;14.418;2024-03-23T09:42:55;98093.47;;;13.37;65.44
73633;BME280;61927;50.080;14.418;2024-03-23T09:45:23;98083.13;;;13.24;66.60
73633;BME280;61927;50.080;14.418;2024-03-23T09:47:52;98106.25;;;13.33;66.64
73633;BME280;61927;50.080;14.418;2024-03-23T09:50:20;98105.88;;;13.18;65.82
73633;BME280;61927;50.080;14.418;2024-03-23T09:52:46;98105.88;;;13.18;66.68
73633;BME280;61927;50.080;14.418;2024-03-23T09:55:12;98100.81;;;13.06;65.39
73633;BME280;61927;50.080;14.418;2024-03-23T09:57:38;98108.53;;;12.99;65.91
73633;BME280;61927;50.080;14.418;2024-03-23T10:00:04;98130.81;;;12.88;67.07
73633;BME280;61927;50.080;14.418;2024-03-23T10:02:30;98144.56;;;12.93;66.90
73633;BME280;61927;50.080;14.418;2024-03-23T10:04:58;98155.63;;;12.89;67.67
73633;BME280;61927;50.080;14.418;2024-03-23T10:07:25;98144.00;;;12.80;66.38
73633;BME280;61927;50.080;14.418;2024-03-23T10:09:51;98146.66;;;12.51;66.34
73633;BME280;61927;50.080;14.418;2024-03-23T10:12:18;98159.97;;;12.61;67.14
73633;BME280;61927;50.080;14.418;2024-03-23T10:14:44;98162.78;;;12.69;65.83
73633;BME280;61927;50.080;14.418;2024-03-23T10:17:15;98158.44;;;12.68;65.75
73633;BME280;61927;50.080;14.418;2024-03-23T10:19:48;98166.97;;;12.72;66.30
73633;BME280;61927;50.080;14.418;2024-03-23T10:22:18;98163.91;;;12.76;66.52
73633;BME280;61927;50.080;14.418;2024-03-23T10:24:44;98149.88;;;12.74;66.06
73633;BME280;61927;50.080;14.418;2024-03-23T10:27:21;98179.03;;;12.76;66.12
73633;BME280;61927;50.080;14.418;2024-03-23T10:29:48;98177.34;;;12.84;65.53
73633;BME280;61927;50.080;14.418;2024-03-23T10:32:15;98179.16;;;12.84;65.57
73633;BME280;61927;50.080;14.418;2024-03-23T10:34:41;98194.72;;;12.79;65.32
73633;BME280;61927;50.080;14.418;2024-03-23T10:37:07;98198.91;;;12.81;65.40
73633;BME280;61927;50.080;14.418;2024-03-23T10:39:35;98202.00;;;12.77;65.09
73633;BME280;61927;50.080;14.418;2024-03-23T10:42:05;98205.94;;;12.82;65.01
73633;BME280;61927;50.080;14.418;2024-03-23T10:44:32;98203.69;;;12.97;65.16
73633;BME280;61927;50.080;14.418;2024-03-23T10:46:58;98203.13;;;12.84;65.29
73633;BME280;61927;50.080;14.418;2024-03-23T10:49:33;98202.16;;;12.85;64.81
73633;BME280;61927;50.080;14.418;2024-03-23T10:52:00;98208.44;;;12.74;65.14
73633;BME280;61927;50.080;14.418;2024-03-23T10:54:27;98195.28;;;12.82;64.88
73633;BME280;61927;50.080;14.418;2024-03-23T10:57:17;98187.28;;;12.82;64.69
73633;BME280;61927;50.080;14.418;2024-03-23T10:59:43;98197.53;;;12.87;64.33
73633;BME280;61927;50.080;14.418;2024-03-23T11:02:21;98193.88;;;12.88;64.58
73633;BME280;61927;50.080;14.418;2024-03-23T11:04:47;98192.75;;;12.90;63.95
73633;BME280;61927;50.080;14.418;2024-03-23T11:09:52;98176.22;;;13.25;62.46
73633;BME280;61927;50.080;14.418;2024-03-23T11:14:48;98180.81;;;13.43;60.83
73633;BME280;61927;50.080;14.418;2024-03-23T11:17:20;98177.31;;;13.42;60.12
73633;BME280;61927;50.080;14.418;2024-03-23T11:20:15;98192.16;;;13.54;59.65
73633;BME280;61927;50.080;14.418;2024-03-23T11:22:56;98171.03;;;13.34;58.73
73633;BME280;61927;50.080;14.418;2024-03-23T11:25:23;98161.41;;;13.60;58.29
73633;BME280;61927;50.080;14.418;2024-03-23T11:30:25;98173.81;;;13.88;56.68
73633;BME280;61927;50.080;14.418;2024-03-23T11:32:53;98169.97;;;14.01;55.14
73633;BME280;61927;50.080;14.418;2024-03-23T11:35:54;98186.50;;;14.04;54.53
73633;BME280;61927;50.080;14.418;2024-03-23T11:38:20;98179.09;;;13.98;53.42
73633;BME280;61927;50.080;14.418;2024-03-23T11:40:49;98176.97;;;14.02;52.26
73633;BME280;61927;50.080;14.418;2024-03-23T11:43:20;98180.78;;;13.99;51.50
73633;BME280;61927;50.080;14.418;2024-03-23T11:45:52;98225.88;;;13.83;50.77
73633;BME280;61927;50.080;14.418;2024-03-23T11:48:20;98260.09;;;11.08;62.57
73633;BME280;61927;50.080;14.418;2024-03-23T11:50:58;98256.34;;;11.11;63.39
73633;BME280;61927;50.080;14.418;2024-03-23T11:53:25;98265.69;;;10.94;63.87
73633;BME280;61927;50.080;14.418;2024-03-23T11:55:55;98275.97;;;10.87;62.90
73633;BME280;61927;50.080;14.418;2024-03-23T11:58:23;98284.59;;;10.68;61.38
73633;BME280;61927;50.080;14.418;2024-03-23T12:01:10;98299.31;;;10.50;59.93
73633;BME280;61927;50.080;14.418;2024-03-23T12:03:36;98332.44;;;10.11;60.12
73633;BME280;61927;50.080;14.418;2024-03-23T12:06:04;98308.59;;;10.11;60.39
73633;BME280;61927;50.080;14.418;2024-03-23T12:08:32;98346.38;;;9.80;60.27
73633;BME280;61927;50.080;14.418;2024-03-23T12:11:11;98359.00;;;9.76;59.46
73633;BME280;61927;50.080;14.418;2024-03-23T12:13:39;98356.03;;;10.03;59.16
73633;BME280;61927;50.080;14.418;2024-03-23T12:16:20;98354.34;;;10.02;58.43
73633;BME280;61927;50.080;14.418;2024-03-23T12:18:49;98331.00;;;10.07;58.43
73633;BME280;61927;50.080;14.418;2024-03-23T12:21:16;98346.34;;;10.37;56.80
73633;BME280;61927;50.080;14.418;2024-03-23T12:23:43;98353.50;;;10.01;56.61
73633;BME280;61927;50.080;14.418;2024-03-23T12:26:13;98351.84;;;10.12;55.89
73633;BME280;61927;50.080;14.418;2024-03-23T12:28:40;98355.06;;;9.93;55.20
73633;BME280;61927;50.080;14.418;2024-03-23T12:31:05;98358.88;;;9.78;56.11
73633;BME280;61927;50.080;14.418;2024-03-23T12:33:31;98377.38;;;10.13;55.06
73633;BME280;61927;50.080;14.418;2024-03-23T12:35:57;98374.66;;;10.25;54.47
73633;BME280;61927;50.080;14.418;2024-03-23T12:38:23;98380.31;;;10.21;53.87
73633;BME280;61927;50.080;14.418;2024-03-23T12:40:49;98366.66;;;10.03;54.34
73633;BME280;61927;50.080;14.418;2024-03-23T12:43:15;98364.84;;;10.03;54.67
73633;BME280;61927;50.080;14.418;2024-03-23T12:45:41;98380.09;;;9.89;53.64
73633;BME280;61927;50.080;14.418;2024-03-23T12:48:11;98400.72;;;9.96;53.62
73633;BME280;61927;50.080;14.418;2024-03-23T12:50:37;98436.44;;;10.15;53.62
73633;BME280;61927;50.080;14.418;2024-03-23T12:53:03;98454.19;;;10.25;52.96
73633;BME280;61927;50.080;14.418;2024-03-23T12:55:29;98457.34;;;10.30;51.80
73633;BME280;61927;50.080;14.418;2024-03-23T12:57:55;98471.53;;;9.94;52.43
73633;BME280;61927;50.080;14.418;2024-03-23T13:00:20;98467.16;;;9.58;53.30
73633;BME280;61927;50.080;14.418;2024-03-23T13:02:46;98486.59;;;9.94;52.47
73633;BME280;61927;50.080;14.418;2024-03-23T13:05:11;98498.53;;;9.99;51.22
73633;BME280;61927;50.080;14.418;2024-03-23T13:07:37;98468.56;;;9.75;51.92
73633;BME280;61927;50.080;14.418;2024-03-23T13:10:05;98490.94;;;9.71;51.23
73633;BME280;61927;50.080;14.418;2024-03-23T13:12:32;98483.06;;;9.82;51.11
73633;BME280;61927;50.080;14.418;2024-03-23T13:15:03;98517.53;;;10.17;50.65
73633;BME280;61927;50.080;14.418;2024-03-23T13:17:29;98525.84;;;9.89;50.91
73633;BME280;61927;50.080;14.418;2024-03-23T13:19:55;98505.81;;;9.85;51.15
73633;BME280;61927;50.080;14.418;2024-03-23T13:22:22;98480.34;;;9.95;51.82
73633;BME280;61927;50.080;14.418;2024-03-23T13:24:47;98506.34;;;9.90;51.15
73633;BME280;61927;50.080;14.418;2024-03-23T13:27:16;98516.06;;;10.13;50.58
73633;BME280;61927;50.080;14.418;2024-03-23T13:29:42;98540.84;;;10.01;50.92
73633;BME280;61927;50.080;14.418;2024-03-23T13:32:07;98509.69;;;10.16;50.06
73633;BME280;61927;50.080;14.418;2024-03-23T13:34:33;98505.19;;;10.05;50.52
73633;BME280;61927;50.080;14.418;2024-03-23T13:37:01;98513.31;;;9.91;50.16
73633;BME280;61927;50.080;14.418;2024-03-23T13:39:27;98506.50;;;9.76;50.56
73633;BME280;61927;50.080;14.418;2024-03-23T13:41:53;98522.41;;;9.76;49.90
73633;BME280;61927;50.080;14.418;2024-03-23T13:44:20;98533.66;;;9.66;50.62
73633;BME280;61927;50.080;14.418;2024-03-23T13:46:47;98507.34;;;10.00;49.76
73633;BME280;61927;50.080;14.418;2024-03-23T13:51:47;98548.22;;;9.85;49.35
73633;BME280;61927;50.080;14.418;2024-03-23T13:54:13;98561.47;;;9.85;50.06